createdAt,value
2022-08-10T00:03:54.953Z,13.50
2022-08-10T00:07:59.648Z,13.40
2022-08-10T00:12:05.616Z,13.40
2022-08-10T00:16:08.941Z,13.30
2022-08-10T00:20:14.195Z,13.30
2022-08-10T00:24:18.787Z,13.30
2022-08-10T00:28:22.103Z,13.30
2022-08-10T00:32:25.417Z,13.20
2022-08-10T00:36:28.891Z,13.10
2022-08-10T00:40:37.809Z,13.10
2022-08-10T00:44:43.053Z,13.10
2022-08-10T00:48:46.348Z,12.90
2022-08-10T00:53:04.083Z,12.90
2022-08-10T00:57:15.823Z,12.90
2022-08-10T01:02:08.280Z,12.80
2022-08-10T01:05:52.963Z,12.80
2022-08-10T01:10:09.214Z,12.70
2022-08-10T01:14:23.824Z,12.70
2022-08-10T01:18:39.893Z,12.60
2022-08-10T01:23:16.676Z,12.60
2022-08-10T01:27:33.755Z,12.50
2022-08-10T01:31:42.959Z,12.50
2022-08-10T01:35:53.918Z,12.40
2022-08-10T01:40:01.513Z,12.40
2022-08-10T01:44:10.331Z,12.40
2022-08-10T01:48:31.229Z,12.40
2022-08-10T01:52:37.960Z,12.30
2022-08-10T01:56:44.026Z,12.20
2022-08-10T02:00:51.441Z,12.10
2022-08-10T02:04:57.200Z,12.10
2022-08-10T02:09:06.701Z,12.10
2022-08-10T02:13:11.558Z,12.10
2022-08-10T02:17:58.263Z,12.00
2022-08-10T02:22:37.616Z,12.00
2022-08-10T02:26:10.678Z,11.90
2022-08-10T02:30:14.880Z,11.90
2022-08-10T02:34:19.194Z,11.80
2022-08-10T02:38:58.526Z,11.80
2022-08-10T02:45:27.431Z,11.80
2022-08-10T02:47:50.826Z,11.70
2022-08-10T02:52:07.370Z,11.70
2022-08-10T02:56:17.861Z,11.60
2022-08-10T03:00:21.718Z,11.60
2022-08-10T03:04:55.707Z,11.50
2022-08-10T03:08:52.044Z,11.50
2022-08-10T03:13:01.333Z,11.50
2022-08-10T03:17:06.277Z,11.40
2022-08-10T03:21:12.019Z,11.40
2022-08-10T03:25:16.331Z,11.40
2022-08-10T03:29:23.011Z,11.30
2022-08-10T03:33:28.453Z,11.30
2022-08-10T03:37:31.966Z,11.20
2022-08-10T03:41:37.895Z,11.20
2022-08-10T03:45:55.390Z,11.20
2022-08-10T03:50:25.919Z,11.20
2022-08-10T03:54:25.608Z,11.30
2022-08-10T03:58:29.309Z,11.20
2022-08-10T04:02:44.991Z,11.20
2022-08-10T04:06:55.225Z,11.10
2022-08-10T04:10:58.870Z,11.20
2022-08-10T04:15:03.215Z,11.20
2022-08-10T04:19:09.584Z,11.10
2022-08-10T04:23:19.195Z,11.20
2022-08-10T04:27:22.630Z,11.30
2022-08-10T04:31:29.252Z,11.30
2022-08-10T04:35:35.212Z,11.40
2022-08-10T04:39:39.147Z,11.40
2022-08-10T04:43:42.571Z,11.50
2022-08-10T04:47:57.917Z,11.50
2022-08-10T04:52:06.531Z,11.60
2022-08-10T04:56:09.794Z,11.70
2022-08-10T05:00:30.354Z,11.80
2022-08-10T05:58:37.877Z,14.00
2022-08-10T06:02:44.768Z,14.30
2022-08-10T06:06:52.896Z,14.50
2022-08-10T06:12:27.804Z,14.70
2022-08-10T06:15:50.894Z,15.00
2022-08-10T06:19:47.135Z,15.30
2022-08-10T06:23:58.780Z,15.50
2022-08-10T06:28:03.404Z,15.80
2022-08-10T06:32:10.188Z,16.10
2022-08-10T06:36:15.286Z,16.30
2022-08-10T06:40:19.146Z,16.50
2022-08-10T06:44:30.045Z,16.80
2022-08-10T06:48:40.606Z,17.20
2022-08-10T06:52:45.240Z,17.50
2022-08-10T06:57:08.142Z,17.70
2022-08-10T07:01:17.164Z,17.80
2022-08-10T07:05:25.878Z,18.10
2022-08-10T07:09:32.018Z,18.40
2022-08-10T07:14:14.639Z,18.80
2022-08-10T07:18:04.505Z,19.10
2022-08-10T07:22:10.442Z,19.40
2022-08-10T07:26:35.169Z,19.70
2022-08-10T07:30:41.092Z,19.50
2022-08-10T07:34:46.320Z,19.90
2022-08-10T07:38:52.897Z,20.30
2022-08-10T07:43:01.038Z,20.70
2022-08-10T07:47:05.647Z,21.10
2022-08-10T07:51:10.484Z,21.50
2022-08-10T07:55:19.727Z,21.80
2022-08-10T07:59:46.047Z,21.80
2022-08-10T08:04:05.347Z,21.90
2022-08-10T08:08:16.257Z,22.00
2022-08-10T08:12:21.410Z,22.10
2022-08-10T08:16:28.547Z,22.20
2022-08-10T08:20:33.425Z,22.30
2022-08-10T08:24:39.139Z,22.70
2022-08-10T08:28:46.080Z,23.30
2022-08-10T08:32:52.103Z,23.70
2022-08-10T08:36:59.579Z,23.30
2022-08-10T08:41:17.860Z,23.10
2022-08-10T08:46:00.632Z,23.10
2022-08-10T08:50:16.540Z,23.90
2022-08-10T08:54:32.967Z,24.90
2022-08-10T08:58:49.594Z,25.00
2022-08-10T09:03:27.583Z,26.40
2022-08-10T09:08:01.875Z,29.00
2022-08-10T09:12:21.696Z,29.80
2022-08-10T09:16:29.210Z,28.20
2022-08-10T09:20:41.123Z,27.70
2022-08-10T09:24:47.426Z,26.20
2022-08-10T09:29:11.494Z,25.50
2022-08-10T09:36:21.166Z,28.40
2022-08-10T09:38:02.356Z,30.30
2022-08-10T09:42:14.763Z,31.50
2022-08-10T09:46:31.095Z,31.00
2022-08-10T09:55:18.902Z,28.40
2022-08-10T10:00:01.145Z,31.80
2022-08-10T10:04:06.204Z,33.00
2022-08-10T10:08:16.145Z,34.20
2022-08-10T10:12:32.246Z,34.10
2022-08-10T10:16:58.418Z,33.60
2022-08-10T10:21:10.303Z,33.00
2022-08-10T10:25:50.422Z,32.90
2022-08-10T10:30:04.418Z,34.10
2022-08-10T10:34:16.990Z,33.60
2022-08-10T10:38:24.472Z,34.70
2022-08-10T10:42:45.383Z,35.10
2022-08-10T10:47:03.182Z,32.80
2022-08-10T10:51:14.337Z,34.30
2022-08-10T10:55:23.514Z,34.50
2022-08-10T10:59:56.980Z,34.60
2022-08-10T11:04:17.166Z,32.40
2022-08-10T11:08:29.154Z,32.50
2022-08-10T11:12:45.715Z,34.20
2022-08-10T11:17:02.592Z,36.10
2022-08-10T11:21:15.278Z,34.30
2022-08-10T11:25:29.471Z,31.90
2022-08-10T11:29:41.455Z,30.90
2022-08-10T11:34:47.665Z,31.80
2022-08-10T11:39:13.059Z,33.90
2022-08-10T11:43:22.097Z,35.70
2022-08-10T11:47:37.383Z,36.40
2022-08-10T11:51:47.217Z,33.50
2022-08-10T11:55:56.481Z,34.70
2022-08-10T12:00:00.423Z,34.40
2022-08-10T12:04:11.995Z,35.50
2022-08-10T12:10:03.806Z,37.60
2022-08-10T12:12:48.601Z,37.00
2022-08-10T12:16:56.828Z,35.90
2022-08-10T12:21:04.658Z,37.30
2022-08-10T12:25:18.176Z,37.40
2022-08-10T12:29:47.326Z,37.80
2022-08-10T12:34:02.878Z,39.20
2022-08-10T12:38:15.945Z,37.20
2022-08-10T12:42:36.815Z,37.50
2022-08-10T12:46:53.554Z,40.00
2022-08-10T12:51:01.557Z,39.60
2022-08-10T12:55:08.529Z,35.60
2022-08-10T12:59:14.058Z,35.70
2022-08-10T13:04:23.725Z,37.00
2022-08-10T13:08:25.769Z,37.50
2022-08-10T13:12:38.579Z,38.20
2022-08-10T13:16:39.676Z,37.80
2022-08-10T13:20:45.023Z,35.50
2022-08-10T13:24:55.933Z,34.10
2022-08-10T13:29:02.176Z,32.10
2022-08-10T13:34:40.352Z,32.10
2022-08-10T13:37:48.068Z,33.90
2022-08-10T13:41:54.330Z,33.90
2022-08-10T13:45:59.363Z,32.90
2022-08-10T13:50:06.290Z,32.60
2022-08-10T13:54:13.018Z,31.50
2022-08-10T13:58:18.469Z,30.80
2022-08-10T14:02:27.992Z,32.30
2022-08-10T14:06:33.334Z,36.00
2022-08-10T14:11:09.291Z,39.00
2022-08-10T14:15:06.638Z,39.30
2022-08-10T14:19:20.856Z,36.10
2022-08-10T14:23:25.574Z,34.40
2022-08-10T14:28:02.631Z,33.10
2022-08-10T14:32:02.296Z,32.20
2022-08-10T14:36:20.313Z,33.00
2022-08-10T14:40:36.109Z,32.00
2022-08-10T14:44:48.725Z,30.70
2022-08-10T14:48:54.228Z,30.10
2022-08-10T14:52:58.950Z,29.60
2022-08-10T14:57:11.073Z,29.30
2022-08-10T15:01:20.814Z,29.20
2022-08-10T15:05:39.364Z,29.00
2022-08-10T15:10:01.652Z,29.10
2022-08-10T15:14:41.691Z,29.40
2022-08-10T15:18:36.855Z,29.50
2022-08-10T15:22:40.745Z,30.80
2022-08-10T15:26:51.127Z,31.70
2022-08-10T15:31:02.008Z,30.80
2022-08-10T15:35:26.253Z,29.60
2022-08-10T15:40:21.388Z,29.00
2022-08-10T15:43:56.417Z,29.60
2022-08-10T15:48:04.023Z,29.10
2022-08-10T15:52:39.206Z,28.90
2022-08-10T15:56:44.595Z,28.50
2022-08-10T16:00:55.771Z,28.00
2022-08-10T16:05:08.495Z,27.80
2022-08-10T16:10:10.737Z,27.50
2022-08-10T16:13:59.280Z,27.10
2022-08-10T16:18:08.634Z,26.70
2022-08-10T16:22:34.429Z,26.20
2022-08-10T16:26:40.179Z,26.00
2022-08-10T16:30:46.446Z,25.60
2022-08-10T16:34:53.060Z,25.30
2022-08-10T16:38:59.014Z,25.00
2022-08-10T16:43:08.578Z,24.90
2022-08-10T16:47:13.543Z,24.60
2022-08-10T16:51:21.708Z,24.40
2022-08-10T16:55:48.836Z,24.30
2022-08-10T16:59:54.661Z,23.90
2022-08-10T17:04:06.406Z,23.70
2022-08-10T17:08:16.161Z,23.40
2022-08-10T17:12:25.375Z,23.20
2022-08-10T17:16:37.289Z,23.00
2022-08-10T17:20:42.318Z,22.90
2022-08-10T17:24:51.428Z,22.80
2022-08-10T17:29:01.199Z,22.60
2022-08-10T17:33:11.804Z,22.30
2022-08-10T17:37:20.119Z,22.20
2022-08-10T17:41:28.571Z,22.10
2022-08-10T17:45:48.119Z,22.00
2022-08-10T17:50:00.112Z,21.90
2022-08-10T17:54:20.810Z,21.70
2022-08-10T17:58:35.231Z,21.50
2022-08-10T18:02:44.592Z,21.30
2022-08-10T18:06:54.831Z,21.10
2022-08-10T18:11:03.213Z,20.90
2022-08-10T18:15:17.621Z,20.70
2022-08-10T18:19:24.152Z,20.60
2022-08-10T18:23:34.070Z,20.50
2022-08-10T18:28:01.717Z,20.40
2022-08-10T18:32:11.420Z,20.40
2022-08-10T18:36:31.318Z,20.30
2022-08-10T18:40:41.542Z,20.20
2022-08-10T18:45:02.897Z,20.10
2022-08-10T18:49:30.624Z,20.10
2022-08-10T18:53:41.320Z,19.90
2022-08-10T18:58:09.282Z,19.90
2022-08-10T19:02:28.656Z,19.80
2022-08-10T19:07:04.435Z,19.80
2022-08-10T19:11:18.997Z,19.70
2022-08-10T19:15:34.037Z,19.50
2022-08-10T19:19:47.526Z,19.30
2022-08-10T19:24:04.757Z,19.30
2022-08-10T19:28:13.864Z,19.10
2022-08-10T19:32:29.249Z,18.90
2022-08-10T19:36:44.509Z,18.60
2022-08-10T19:40:59.451Z,18.30
2022-08-10T19:46:00.581Z,18.10
2022-08-10T19:49:51.994Z,17.80
2022-08-10T19:54:04.813Z,17.70
2022-08-10T19:58:16.968Z,17.50
2022-08-10T20:02:26.161Z,17.40
2022-08-10T20:06:43.732Z,17.30
2022-08-10T20:10:56.405Z,17.20
2022-08-10T20:15:07.294Z,17.20
2022-08-10T20:19:13.778Z,17.20
2022-08-10T20:23:21.125Z,17.20
2022-08-10T20:27:56.847Z,17.20
2022-08-10T20:31:56.848Z,17.30
2022-08-10T20:36:06.802Z,17.40
2022-08-10T20:40:18.605Z,17.50
2022-08-10T20:44:34.646Z,17.60
2022-08-10T20:48:45.684Z,17.60
2022-08-10T20:52:51.634Z,17.60
2022-08-10T20:58:04.053Z,17.60
2022-08-10T21:02:07.175Z,17.60
2022-08-10T21:06:46.092Z,17.60
2022-08-10T21:11:03.671Z,17.50
2022-08-10T21:15:22.093Z,17.40
2022-08-10T21:20:06.013Z,17.20
2022-08-10T21:24:19.922Z,17.00
2022-08-10T21:28:49.905Z,16.80
2022-08-10T21:32:59.309Z,16.70
2022-08-10T21:37:09.000Z,16.60
2022-08-10T21:41:58.476Z,16.40
2022-08-10T21:46:28.496Z,16.20
2022-08-10T21:50:57.506Z,16.10
2022-08-10T21:55:57.011Z,16.00
2022-08-10T22:04:54.338Z,15.90
2022-08-10T22:09:21.676Z,15.80
2022-08-10T22:13:42.764Z,15.80
2022-08-10T22:18:07.596Z,15.70
2022-08-10T22:22:34.328Z,15.70
2022-08-10T22:27:46.876Z,15.70
2022-08-10T22:32:15.759Z,15.50
2022-08-10T22:37:06.105Z,15.50
2022-08-10T22:41:32.558Z,15.40
2022-08-10T22:45:55.169Z,15.30
2022-08-10T22:50:03.380Z,15.20
2022-08-10T22:54:34.232Z,15.20
2022-08-10T22:58:42.016Z,15.10
2022-08-10T23:02:53.271Z,15.10
2022-08-10T23:06:59.266Z,15.00
2022-08-10T23:11:06.030Z,14.90
2022-08-10T23:15:37.226Z,14.80
2022-08-10T23:19:45.968Z,14.70
2022-08-10T23:23:51.855Z,14.60
2022-08-10T23:27:58.673Z,14.50
2022-08-10T23:32:07.869Z,14.40
2022-08-10T23:36:34.194Z,14.30
2022-08-10T23:40:39.410Z,14.20
2022-08-10T23:44:46.209Z,14.10
2022-08-10T23:48:54.437Z,14.00
2022-08-10T23:53:03.508Z,14.00
2022-08-10T23:57:22.528Z,13.90
